sensor_id;sensor_type;location;lat;lon;timestamp;temperature;humidity
1546;DHT22;766;51.502;9.752;2023-04-15T00:01:59;6.70;99.90
1546;DHT22;766;51.502;9.752;2023-04-15T00:04:27;6.80;99.90
1546;DHT22;766;51.502;9.752;2023-04-15T00:06:57;6.90;99.90
1546;DHT22;766;51.502;9.752;2023-04-15T00:09:26;6.80;99.90
1546;DHT22;766;51.502;9.752;2023-04-15T00:11:55;6.90;99.90
1546;DHT22;766;51.502;9.752;2023-04-15T00:14:25;6.60;99.90
1546;DHT22;766;51.502;9.752;2023-04-15T00:16:54;6.40;99.90
1546;DHT22;766;51.502;9.752;2023-04-15T00:19:23;6.50;99.90
1546;DHT22;766;51.502;9.752;2023-04-15T00:21:51;6.50;99.90
1546;DHT22;766;51.502;9.752;2023-04-15T00:24:20;6.50;99.90
1546;DHT22;766;51.502;9.752;2023-04-15T00:26:49;6.50;99.90
1546;DHT22;766;51.502;9.752;2023-04-15T00:29:17;6.50;99.90
1546;DHT22;766;51.502;9.752;2023-04-15T00:31:47;6.60;99.90
1546;DHT22;766;51.502;9.752;2023-04-15T00:34:19;6.40;99.90
1546;DHT22;766;51.502;9.752;2023-04-15T00:36:47;6.30;99.90
1546;DHT22;766;51.502;9.752;2023-04-15T00:39:16;6.20;99.90
1546;DHT22;766;51.502;9.752;2023-04-15T00:41:44;6.20;99.90
1546;DHT22;766;51.502;9.752;2023-04-15T00:44:13;6.40;99.90
1546;DHT22;766;51.502;9.752;2023-04-15T00:46:42;6.30;99.90
1546;DHT22;766;51.502;9.752;2023-04-15T00:49:13;6.20;99.90
1546;DHT22;766;51.502;9.752;2023-04-15T00:51:41;6.40;99.90
1546;DHT22;766;51.502;9.752;2023-04-15T00:54:10;6.20;99.90
1546;DHT22;766;51.502;9.752;2023-04-15T00:56:39;6.10;99.90
1546;DHT22;766;51.502;9.752;2023-04-15T00:59:08;6.20;99.90
1546;DHT22;766;51.502;9.752;2023-04-15T01:01:37;6.20;99.90
1546;DHT22;766;51.502;9.752;2023-04-15T01:04:05;6.10;99.90
1546;DHT22;766;51.502;9.752;2023-04-15T01:06:37;6.10;99.90
1546;DHT22;766;51.502;9.752;2023-04-15T01:09:06;6.10;99.90
1546;DHT22;766;51.502;9.752;2023-04-15T01:11:35;6.20;99.90
1546;DHT22;766;51.502;9.752;2023-04-15T01:14:03;6.20;99.90
1546;DHT22;766;51.502;9.752;2023-04-15T01:16:31;6.10;99.90
1546;DHT22;766;51.502;9.752;2023-04-15T01:19:01;6.10;99.90
1546;DHT22;766;51.502;9.752;2023-04-15T01:21:29;6.20;99.90
1546;DHT22;766;51.502;9.752;2023-04-15T01:23:59;6.30;99.90
1546;DHT22;766;51.502;9.752;2023-04-15T01:26:29;6.40;99.90
1546;DHT22;766;51.502;9.752;2023-04-15T01:28:58;6.40;99.90
1546;DHT22;766;51.502;9.752;2023-04-15T01:31:27;6.40;99.90
1546;DHT22;766;51.502;9.752;2023-04-15T01:33:55;6.40;99.90
1546;DHT22;766;51.502;9.752;2023-04-15T01:36:24;6.30;99.90
1546;DHT22;766;51.502;9.752;2023-04-15T01:38:53;6.30;99.90
1546;DHT22;766;51.502;9.752;2023-04-15T01:41:24;6.40;99.90
1546;DHT22;766;51.502;9.752;2023-04-15T01:43:55;6.40;99.90
1546;DHT22;766;51.502;9.752;2023-04-15T01:46:34;6.40;99.90
1546;DHT22;766;51.502;9.752;2023-04-15T01:49:03;6.40;99.90
1546;DHT22;766;51.502;9.752;2023-04-15T01:51:32;6.20;99.90
1546;DHT22;766;51.502;9.752;2023-04-15T01:54:00;6.00;99.90
1546;DHT22;766;51.502;9.752;2023-04-15T01:56:28;6.20;99.90
1546;DHT22;766;51.502;9.752;2023-04-15T01:58:58;6.20;99.90
1546;DHT22;766;51.502;9.752;2023-04-15T02:01:26;5.90;99.90
1546;DHT22;766;51.502;9.752;2023-04-15T02:03:55;5.80;99.90
1546;DHT22;766;51.502;9.752;2023-04-15T02:06:23;5.90;99.90
1546;DHT22;766;51.502;9.752;2023-04-15T02:08:57;6.00;99.90
1546;DHT22;766;51.502;9.752;2023-04-15T02:11:26;5.90;99.90
1546;DHT22;766;51.502;9.752;2023-04-15T02:13:55;6.10;99.90
1546;DHT22;766;51.502;9.752;2023-04-15T02:16:24;6.30;99.90
1546;DHT22;766;51.502;9.752;2023-04-15T02:18:53;6.40;99.90
1546;DHT22;766;51.502;9.752;2023-04-15T02:21:21;6.30;99.90
1546;DHT22;766;51.502;9.752;2023-04-15T02:23:50;6.30;99.90
1546;DHT22;766;51.502;9.752;2023-04-15T02:26:20;6.30;99.90
1546;DHT22;766;51.502;9.752;2023-04-15T02:28:49;6.10;99.90
1546;DHT22;766;51.502;9.752;2023-04-15T02:31:17;6.10;99.90
1546;DHT22;766;51.502;9.752;2023-04-15T02:33:48;6.40;99.90
1546;DHT22;766;51.502;9.752;2023-04-15T02:36:16;6.50;99.90
1546;DHT22;766;51.502;9.752;2023-04-15T02:38:46;6.50;99.90
1546;DHT22;766;51.502;9.752;2023-04-15T02:41:14;6.60;99.90
1546;DHT22;766;51.502;9.752;2023-04-15T02:43:43;6.70;99.90
1546;DHT22;766;51.502;9.752;2023-04-15T02:46:11;6.90;99.90
1546;DHT22;766;51.502;9.752;2023-04-15T02:48:41;6.60;99.90
1546;DHT22;766;51.502;9.752;2023-04-15T02:51:18;6.80;99.90
1546;DHT22;766;51.502;9.752;2023-04-15T02:53:47;6.70;99.90
1546;DHT22;766;51.502;9.752;2023-04-15T02:56:16;6.60;99.90
1546;DHT22;766;51.502;9.752;2023-04-15T02:58:45;6.60;99.90
1546;DHT22;766;51.502;9.752;2023-04-15T03:01:16;6.50;99.90
1546;DHT22;766;51.502;9.752;2023-04-15T03:03:46;6.40;99.90
1546;DHT22;766;51.502;9.752;2023-04-15T03:06:16;6.40;99.90
1546;DHT22;766;51.502;9.752;2023-04-15T03:08:45;6.70;99.90
1546;DHT22;766;51.502;9.752;2023-04-15T03:11:14;6.70;99.90
1546;DHT22;766;51.502;9.752;2023-04-15T03:13:42;6.80;99.90
1546;DHT22;766;51.502;9.752;2023-04-15T03:16:11;6.70;99.90
1546;DHT22;766;51.502;9.752;2023-04-15T03:18:39;6.70;99.90
1546;DHT22;766;51.502;9.752;2023-04-15T03:21:08;6.70;99.90
1546;DHT22;766;51.502;9.752;2023-04-15T03:23:37;6.80;99.90
1546;DHT22;766;51.502;9.752;2023-04-15T03:26:06;6.60;99.90
1546;DHT22;766;51.502;9.752;2023-04-15T03:28:35;6.60;99.90
1546;DHT22;766;51.502;9.752;2023-04-15T03:31:03;6.50;99.90
1546;DHT22;766;51.502;9.752;2023-04-15T03:33:32;6.40;99.90
1546;DHT22;766;51.502;9.752;2023-04-15T03:36:00;6.50;99.90
1546;DHT22;766;51.502;9.752;2023-04-15T03:38:28;6.60;99.90
1546;DHT22;766;51.502;9.752;2023-04-15T03:40:58;6.60;99.90
1546;DHT22;766;51.502;9.752;2023-04-15T03:43:27;6.60;99.90
1546;DHT22;766;51.502;9.752;2023-04-15T03:45:56;6.50;99.90
1546;DHT22;766;51.502;9.752;2023-04-15T03:48:27;6.70;99.90
1546;DHT22;766;51.502;9.752;2023-04-15T03:50:55;6.80;99.90
1546;DHT22;766;51.502;9.752;2023-04-15T03:53:24;6.90;99.90
1546;DHT22;766;51.502;9.752;2023-04-15T03:55:53;6.80;99.90
1546;DHT22;766;51.502;9.752;2023-04-15T03:58:23;6.70;99.90
1546;DHT22;766;51.502;9.752;2023-04-15T04:00:51;6.80;99.90
1546;DHT22;766;51.502;9.752;2023-04-15T04:03:20;6.80;99.90
1546;DHT22;766;51.502;9.752;2023-04-15T04:05:50;6.70;99.90
1546;DHT22;766;51.502;9.752;2023-04-15T04:08:22;6.60;99.90
1546;DHT22;766;51.502;9.752;2023-04-15T04:10:50;6.70;99.90
1546;DHT22;766;51.502;9.752;2023-04-15T04:13:19;6.60;99.90
1546;DHT22;766;51.502;9.752;2023-04-15T04:15:48;6.40;99.90
1546;DHT22;766;51.502;9.752;2023-04-15T04:18:20;6.40;99.90
1546;DHT22;766;51.502;9.752;2023-04-15T04:20:48;6.40;99.90
1546;DHT22;766;51.502;9.752;2023-04-15T04:23:17;6.40;99.90
1546;DHT22;766;51.502;9.752;2023-04-15T04:25:45;6.30;99.90
1546;DHT22;766;51.502;9.752;2023-04-15T04:28:14;6.40;99.90
1546;DHT22;766;51.502;9.752;2023-04-15T04:30:43;6.20;99.90
1546;DHT22;766;51.502;9.752;2023-04-15T04:33:13;6.30;99.90
1546;DHT22;766;51.502;9.752;2023-04-15T04:35:41;6.20;99.90
1546;DHT22;766;51.502;9.752;2023-04-15T04:38:09;6.30;99.90
1546;DHT22;766;51.502;9.752;2023-04-15T04:40:38;6.30;99.90
1546;DHT22;766;51.502;9.752;2023-04-15T04:43:06;6.40;99.90
1546;DHT22;766;51.502;9.752;2023-04-15T04:45:35;6.40;99.90
1546;DHT22;766;51.502;9.752;2023-04-15T04:48:04;6.40;99.90
1546;DHT22;766;51.502;9.752;2023-04-15T04:50:34;6.30;99.90
1546;DHT22;766;51.502;9.752;2023-04-15T04:53:03;6.30;99.90
1546;DHT22;766;51.502;9.752;2023-04-15T04:55:31;6.30;99.90
1546;DHT22;766;51.502;9.752;2023-04-15T04:58:02;6.20;99.90
1546;DHT22;766;51.502;9.752;2023-04-15T05:00:31;6.30;99.90
1546;DHT22;766;51.502;9.752;2023-04-15T05:02:59;6.30;99.90
1546;DHT22;766;51.502;9.752;2023-04-15T05:05:28;6.40;99.90
1546;DHT22;766;51.502;9.752;2023-04-15T05:07:57;6.50;99.90
1546;DHT22;766;51.502;9.752;2023-04-15T05:10:26;6.40;99.90
1546;DHT22;766;51.502;9.752;2023-04-15T05:12:54;6.40;99.90
1546;DHT22;766;51.502;9.752;2023-04-15T05:15:22;6.40;99.90
1546;DHT22;766;51.502;9.752;2023-04-15T05:17:51;6.30;99.90
1546;DHT22;766;51.502;9.752;2023-04-15T05:20:19;6.40;99.90
1546;DHT22;766;51.502;9.752;2023-04-15T05:22:48;6.40;99.90
1546;DHT22;766;51.502;9.752;2023-04-15T05:25:17;6.40;99.90
1546;DHT22;766;51.502;9.752;2023-04-15T05:27:46;6.40;99.90
1546;DHT22;766;51.502;9.752;2023-04-15T05:30:14;6.40;99.90
1546;DHT22;766;51.502;9.752;2023-04-15T05:32:42;6.50;99.90
1546;DHT22;766;51.502;9.752;2023-04-15T05:35:11;6.70;99.90
1546;DHT22;766;51.502;9.752;2023-04-15T05:37:40;6.60;99.90
1546;DHT22;766;51.502;9.752;2023-04-15T05:40:09;6.60;99.90
1546;DHT22;766;51.502;9.752;2023-04-15T05:42:38;6.70;99.90
1546;DHT22;766;51.502;9.752;2023-04-15T05:45:07;6.60;99.90
1546;DHT22;766;51.502;9.752;2023-04-15T05:47:36;6.60;99.90
1546;DHT22;766;51.502;9.752;2023-04-15T05:50:05;6.60;99.90
1546;DHT22;766;51.502;9.752;2023-04-15T05:52:34;6.70;99.90
1546;DHT22;766;51.502;9.752;2023-04-15T05:55:03;6.70;99.90
1546;DHT22;766;51.502;9.752;2023-04-15T05:57:32;6.60;99.90
1546;DHT22;766;51.502;9.752;2023-04-15T06:00:02;6.50;99.90
1546;DHT22;766;51.502;9.752;2023-04-15T06:02:31;6.50;99.90
1546;DHT22;766;51.502;9.752;2023-04-15T06:04:59;6.60;99.90
1546;DHT22;766;51.502;9.752;2023-04-15T06:07:28;6.60;99.90
1546;DHT22;766;51.502;9.752;2023-04-15T06:09:56;6.60;99.90
1546;DHT22;766;51.502;9.752;2023-04-15T06:12:25;6.70;99.90
1546;DHT22;766;51.502;9.752;2023-04-15T06:14:53;6.60;99.90
1546;DHT22;766;51.502;9.752;2023-04-15T06:17:22;6.70;99.90
1546;DHT22;766;51.502;9.752;2023-04-15T06:19:51;6.70;99.90
1546;DHT22;766;51.502;9.752;2023-04-15T06:22:22;6.90;99.90
1546;DHT22;766;51.502;9.752;2023-04-15T06:24:50;6.70;99.90
1546;DHT22;766;51.502;9.752;2023-04-15T06:27:19;6.60;99.90
1546;DHT22;766;51.502;9.752;2023-04-15T06:29:48;6.60;99.90
1546;DHT22;766;51.502;9.752;2023-04-15T06:32:17;6.50;99.90
1546;DHT22;766;51.502;9.752;2023-04-15T06:34:46;6.50;99.90
1546;DHT22;766;51.502;9.752;2023-04-15T06:37:15;6.30;99.90
1546;DHT22;766;51.502;9.752;2023-04-15T06:39:43;6.40;99.90
1546;DHT22;766;51.502;9.752;2023-04-15T06:42:12;6.40;99.90
1546;DHT22;766;51.502;9.752;2023-04-15T06:44:40;6.60;99.90
1546;DHT22;766;51.502;9.752;2023-04-15T06:47:09;6.80;99.90
1546;DHT22;766;51.502;9.752;2023-04-15T06:49:42;6.60;99.90
1546;DHT22;766;51.502;9.752;2023-04-15T06:52:12;6.80;99.90
1546;DHT22;766;51.502;9.752;2023-04-15T06:54:43;6.60;99.90
1546;DHT22;766;51.502;9.752;2023-04-15T06:57:23;6.80;99.90
1546;DHT22;766;51.502;9.752;2023-04-15T07:00:09;6.60;99.90
1546;DHT22;766;51.502;9.752;2023-04-15T07:02:38;6.90;99.90
1546;DHT22;766;51.502;9.752;2023-04-15T07:05:08;6.90;99.90
1546;DHT22;766;51.502;9.752;2023-04-15T07:07:42;6.90;99.90
1546;DHT22;766;51.502;9.752;2023-04-15T07:10:12;7.00;99.90
1546;DHT22;766;51.502;9.752;2023-04-15T07:12:43;6.90;99.90
1546;DHT22;766;51.502;9.752;2023-04-15T07:15:11;7.00;99.90
1546;DHT22;766;51.502;9.752;2023-04-15T07:17:40;7.10;99.90
1546;DHT22;766;51.502;9.752;2023-04-15T07:20:10;6.90;99.90
1546;DHT22;766;51.502;9.752;2023-04-15T07:22:39;6.90;99.90
1546;DHT22;766;51.502;9.752;2023-04-15T07:25:09;6.80;99.90
1546;DHT22;766;51.502;9.752;2023-04-15T07:27:37;6.90;99.90
1546;DHT22;766;51.502;9.752;2023-04-15T07:30:07;6.90;99.90
1546;DHT22;766;51.502;9.752;2023-04-15T07:32:36;7.00;99.90
1546;DHT22;766;51.502;9.752;2023-04-15T07:35:05;7.00;99.90
1546;DHT22;766;51.502;9.752;2023-04-15T07:37:34;7.00;99.90
1546;DHT22;766;51.502;9.752;2023-04-15T07:40:03;7.10;99.90
1546;DHT22;766;51.502;9.752;2023-04-15T07:42:34;7.00;99.90
1546;DHT22;766;51.502;9.752;2023-04-15T07:45:07;6.90;99.90
1546;DHT22;766;51.502;9.752;2023-04-15T07:47:35;7.00;99.90
1546;DHT22;766;51.502;9.752;2023-04-15T07:50:04;7.00;99.90
1546;DHT22;766;51.502;9.752;2023-04-15T07:52:33;7.00;99.90
1546;DHT22;766;51.502;9.752;2023-04-15T07:55:06;7.00;99.90
1546;DHT22;766;51.502;9.752;2023-04-15T07:57:36;7.00;99.90
1546;DHT22;766;51.502;9.752;2023-04-15T08:00:05;7.00;99.90
1546;DHT22;766;51.502;9.752;2023-04-15T08:02:34;6.90;99.90
1546;DHT22;766;51.502;9.752;2023-04-15T08:05:06;7.00;99.90
1546;DHT22;766;51.502;9.752;2023-04-15T08:07:36;7.10;99.90
1546;DHT22;766;51.502;9.752;2023-04-15T08:10:05;7.00;99.90
1546;DHT22;766;51.502;9.752;2023-04-15T08:12:33;6.90;99.90
1546;DHT22;766;51.502;9.752;2023-04-15T08:15:04;6.90;99.90
1546;DHT22;766;51.502;9.752;2023-04-15T08:17:33;6.90;99.90
1546;DHT22;766;51.502;9.752;2023-04-15T08:20:02;6.80;99.90
1546;DHT22;766;51.502;9.752;2023-04-15T08:22:31;6.90;99.90
1546;DHT22;766;51.502;9.752;2023-04-15T08:25:00;6.80;99.90
1546;DHT22;766;51.502;9.752;2023-04-15T08:27:29;6.80;99.90
1546;DHT22;766;51.502;9.752;2023-04-15T08:29:58;6.80;99.90
1546;DHT22;766;51.502;9.752;2023-04-15T08:32:30;6.90;99.90
1546;DHT22;766;51.502;9.752;2023-04-15T08:34:59;6.80;99.90
1546;DHT22;766;51.502;9.752;2023-04-15T08:37:28;6.80;99.90
1546;DHT22;766;51.502;9.752;2023-04-15T08:39:56;6.90;99.90
1546;DHT22;766;51.502;9.752;2023-04-15T08:42:29;7.00;99.90
1546;DHT22;766;51.502;9.752;2023-04-15T08:44:58;7.10;99.90
1546;DHT22;766;51.502;9.752;2023-04-15T08:47:30;7.00;99.90
1546;DHT22;766;51.502;9.752;2023-04-15T08:50:03;6.90;99.90
1546;DHT22;766;51.502;9.752;2023-04-15T08:52:31;7.00;99.90
1546;DHT22;766;51.502;9.752;2023-04-15T08:55:01;6.90;99.90
1546;DHT22;766;51.502;9.752;2023-04-15T08:57:32;7.00;99.90
1546;DHT22;766;51.502;9.752;2023-04-15T09:00:02;6.90;99.90
1546;DHT22;766;51.502;9.752;2023-04-15T09:02:33;6.90;99.90
1546;DHT22;766;51.502;9.752;2023-04-15T09:05:02;7.00;99.90
1546;DHT22;766;51.502;9.752;2023-04-15T09:07:33;7.10;99.90
1546;DHT22;766;51.502;9.752;2023-04-15T09:10:03;7.00;99.90
1546;DHT22;766;51.502;9.752;2023-04-15T09:12:33;7.10;99.90
1546;DHT22;766;51.502;9.752;2023-04-15T09:15:03;7.10;99.90
1546;DHT22;766;51.502;9.752;2023-04-15T09:17:33;7.10;99.90
1546;DHT22;766;51.502;9.752;2023-04-15T09:20:09;7.10;99.90
1546;DHT22;766;51.502;9.752;2023-04-15T09:22:39;7.20;99.90
1546;DHT22;766;51.502;9.752;2023-04-15T09:25:29;7.10;99.90
1546;DHT22;766;51.502;9.752;2023-04-15T09:28:01;7.10;99.90
1546;DHT22;766;51.502;9.752;2023-04-15T09:30:30;7.10;99.90
1546;DHT22;766;51.502;9.752;2023-04-15T09:33:01;7.00;99.90
1546;DHT22;766;51.502;9.752;2023-04-15T09:35:34;7.00;99.90
1546;DHT22;766;51.502;9.752;2023-04-15T09:38:03;7.00;99.90
1546;DHT22;766;51.502;9.752;2023-04-15T09:40:34;7.00;99.90
1546;DHT22;766;51.502;9.752;2023-04-15T09:43:03;7.00;99.90
1546;DHT22;766;51.502;9.752;2023-04-15T09:45:32;7.00;99.90
1546;DHT22;766;51.502;9.752;2023-04-15T09:48:16;7.00;99.90
1546;DHT22;766;51.502;9.752;2023-04-15T09:50:44;7.20;99.90
1546;DHT22;766;51.502;9.752;2023-04-15T09:53:19;7.20;99.90
1546;DHT22;766;51.502;9.752;2023-04-15T09:55:52;7.10;99.90
1546;DHT22;766;51.502;9.752;2023-04-15T09:58:22;7.20;99.90
1546;DHT22;766;51.502;9.752;2023-04-15T10:00:52;7.10;99.90
1546;DHT22;766;51.502;9.752;2023-04-15T10:03:23;7.10;99.90
1546;DHT22;766;51.502;9.752;2023-04-15T10:05:53;7.20;99.90
1546;DHT22;766;51.502;9.752;2023-04-15T10:08:23;7.10;99.90
1546;DHT22;766;51.502;9.752;2023-04-15T10:10:52;7.20;99.90
1546;DHT22;766;51.502;9.752;2023-04-15T10:13:22;7.40;99.90
1546;DHT22;766;51.502;9.752;2023-04-15T10:15:56;7.30;99.90
1546;DHT22;766;51.502;9.752;2023-04-15T10:18:27;7.20;99.90
1546;DHT22;766;51.502;9.752;2023-04-15T10:20:56;7.20;99.90
1546;DHT22;766;51.502;9.752;2023-04-15T10:23:25;7.20;99.90
1546;DHT22;766;51.502;9.752;2023-04-15T10:25:55;7.30;99.90
1546;DHT22;766;51.502;9.752;2023-04-15T10:28:25;7.20;99.90
1546;DHT22;766;51.502;9.752;2023-04-15T10:30:53;7.10;99.90
1546;DHT22;766;51.502;9.752;2023-04-15T10:33:22;7.00;99.90
1546;DHT22;766;51.502;9.752;2023-04-15T10:35:56;7.10;99.90
1546;DHT22;766;51.502;9.752;2023-04-15T10:38:32;7.10;99.90
1546;DHT22;766;51.502;9.752;2023-04-15T10:41:19;7.20;99.90
1546;DHT22;766;51.502;9.752;2023-04-15T10:43:49;7.20;99.90
1546;DHT22;766;51.502;9.752;2023-04-15T10:46:21;7.20;99.90
1546;DHT22;766;51.502;9.752;2023-04-15T10:48:51;7.10;99.90
1546;DHT22;766;51.502;9.752;2023-04-15T10:51:29;7.20;99.90
1546;DHT22;766;51.502;9.752;2023-04-15T10:54:01;7.20;99.90
1546;DHT22;766;51.502;9.752;2023-04-15T10:56:30;7.10;99.90
1546;DHT22;766;51.502;9.752;2023-04-15T10:58:59;7.10;99.90
1546;DHT22;766;51.502;9.752;2023-04-15T11:01:52;7.10;99.90
1546;DHT22;766;51.502;9.752;2023-04-15T11:04:51;7.20;99.90
1546;DHT22;766;51.502;9.752;2023-04-15T11:07:38;7.10;99.90
1546;DHT22;766;51.502;9.752;2023-04-15T11:13:26;7.20;99.90
1546;DHT22;766;51.502;9.752;2023-04-15T11:15:59;7.10;99.90
1546;DHT22;766;51.502;9.752;2023-04-15T11:18:33;7.20;99.90
1546;DHT22;766;51.502;9.752;2023-04-15T11:21:05;7.30;99.90
1546;DHT22;766;51.502;9.752;2023-04-15T11:23:38;7.30;99.90
1546;DHT22;766;51.502;9.752;2023-04-15T11:26:08;7.20;99.90
1546;DHT22;766;51.502;9.752;2023-04-15T11:28:38;7.20;99.90
1546;DHT22;766;51.502;9.752;2023-04-15T11:31:08;7.20;99.90
1546;DHT22;766;51.502;9.752;2023-04-15T11:33:44;7.30;99.90
1546;DHT22;766;51.502;9.752;2023-04-15T11:36:13;7.50;99.90
1546;DHT22;766;51.502;9.752;2023-04-15T11:38:45;7.50;99.90
1546;DHT22;766;51.502;9.752;2023-04-15T11:41:14;7.50;99.90
1546;DHT22;766;51.502;9.752;2023-04-15T11:43:43;7.60;99.90
1546;DHT22;766;51.502;9.752;2023-04-15T11:46:11;7.40;99.90
1546;DHT22;766;51.502;9.752;2023-04-15T11:48:42;7.40;99.90
1546;DHT22;766;51.502;9.752;2023-04-15T11:51:11;7.20;99.90
1546;DHT22;766;51.502;9.752;2023-04-15T11:53:43;7.20;99.90
1546;DHT22;766;51.502;9.752;2023-04-15T11:56:17;7.40;99.90
1546;DHT22;766;51.502;9.752;2023-04-15T11:58:45;7.50;99.90
1546;DHT22;766;51.502;9.752;2023-04-15T12:01:14;7.40;99.90
1546;DHT22;766;51.502;9.752;2023-04-15T12:03:44;7.40;99.90
1546;DHT22;766;51.502;9.752;2023-04-15T12:06:16;7.40;99.90
1546;DHT22;766;51.502;9.752;2023-04-15T12:09:02;7.40;99.90
1546;DHT22;766;51.502;9.752;2023-04-15T12:11:33;7.40;99.90
1546;DHT22;766;51.502;9.752;2023-04-15T12:14:05;7.50;99.90
1546;DHT22;766;51.502;9.752;2023-04-15T12:16:37;7.60;99.90
1546;DHT22;766;51.502;9.752;2023-04-15T12:19:17;7.50;99.90
1546;DHT22;766;51.502;9.752;2023-04-15T12:21:46;7.60;99.90
1546;DHT22;766;51.502;9.752;2023-04-15T12:24:20;7.60;99.90
1546;DHT22;766;51.502;9.752;2023-04-15T12:26:50;7.70;99.90
1546;DHT22;766;51.502;9.752;2023-04-15T12:29:24;7.70;99.90
1546;DHT22;766;51.502;9.752;2023-04-15T12:32:03;7.80;99.90
1546;DHT22;766;51.502;9.752;2023-04-15T12:34:32;7.70;99.90
1546;DHT22;766;51.502;9.752;2023-04-15T12:37:03;7.70;99.90
1546;DHT22;766;51.502;9.752;2023-04-15T12:39:36;7.70;99.90
1546;DHT22;766;51.502;9.752;2023-04-15T12:42:05;7.60;99.90
1546;DHT22;766;51.502;9.752;2023-04-15T12:44:35;7.60;99.90
1546;DHT22;766;51.502;9.752;2023-04-15T12:47:04;7.60;99.90
1546;DHT22;766;51.502;9.752;2023-04-15T12:49:33;7.60;99.90
1546;DHT22;766;51.502;9.752;2023-04-15T12:52:02;7.80;99.90
1546;DHT22;766;51.502;9.752;2023-04-15T12:54:31;7.80;99.90
1546;DHT22;766;51.502;9.752;2023-04-15T12:57:02;7.80;99.90
1546;DHT22;766;51.502;9.752;2023-04-15T12:59:33;7.70;99.90
1546;DHT22;766;51.502;9.752;2023-04-15T13:02:02;7.70;99.90
1546;DHT22;766;51.502;9.752;2023-04-15T13:04:31;7.80;99.90
1546;DHT22;766;51.502;9.752;2023-04-15T13:07:00;7.80;99.90
1546;DHT22;766;51.502;9.752;2023-04-15T13:09:28;7.70;99.90
1546;DHT22;766;51.502;9.752;2023-04-15T13:11:57;7.70;99.90
1546;DHT22;766;51.502;9.752;2023-04-15T13:14:26;7.70;99.90
1546;DHT22;766;51.502;9.752;2023-04-15T13:16:58;7.80;99.90
1546;DHT22;766;51.502;9.752;2023-04-15T13:19:26;7.80;99.90
1546;DHT22;766;51.502;9.752;2023-04-15T13:21:54;7.80;99.90
1546;DHT22;766;51.502;9.752;2023-04-15T13:24:22;7.70;99.90
1546;DHT22;766;51.502;9.752;2023-04-15T13:26:51;7.70;99.90
1546;DHT22;766;51.502;9.752;2023-04-15T13:29:20;7.60;99.90
1546;DHT22;766;51.502;9.752;2023-04-15T13:31:50;7.70;99.90
1546;DHT22;766;51.502;9.752;2023-04-15T13:34:19;7.70;99.90
1546;DHT22;766;51.502;9.752;2023-04-15T13:36:47;7.70;99.90
1546;DHT22;766;51.502;9.752;2023-04-15T13:39:15;7.80;99.90
1546;DHT22;766;51.502;9.752;2023-04-15T13:41:44;7.80;99.90
1546;DHT22;766;51.502;9.752;2023-04-15T13:44:14;7.90;99.90
1546;DHT22;766;51.502;9.752;2023-04-15T13:46:43;7.90;99.90
1546;DHT22;766;51.502;9.752;2023-04-15T13:49:13;7.90;99.90
1546;DHT22;766;51.502;9.752;2023-04-15T13:51:41;7.90;99.90
1546;DHT22;766;51.502;9.752;2023-04-15T13:54:09;7.80;99.90
1546;DHT22;766;51.502;9.752;2023-04-15T13:56:38;7.80;99.90
1546;DHT22;766;51.502;9.752;2023-04-15T13:59:06;7.90;99.90
1546;DHT22;766;51.502;9.752;2023-04-15T14:01:34;7.90;99.90
1546;DHT22;766;51.502;9.752;2023-04-15T14:04:03;8.00;99.90
1546;DHT22;766;51.502;9.752;2023-04-15T14:06:33;8.00;99.90
1546;DHT22;766;51.502;9.752;2023-04-15T14:09:05;8.00;99.90
1546;DHT22;766;51.502;9.752;2023-04-15T14:11:33;7.90;99.90
1546;DHT22;766;51.502;9.752;2023-04-15T14:14:02;7.90;99.90
1546;DHT22;766;51.502;9.752;2023-04-15T14:16:34;7.90;99.90
1546;DHT22;766;51.502;9.752;2023-04-15T14:19:02;7.90;99.90
1546;DHT22;766;51.502;9.752;2023-04-15T14:21:32;7.90;99.90
1546;DHT22;766;51.502;9.752;2023-04-15T14:24:01;7.90;99.90
1546;DHT22;766;51.502;9.752;2023-04-15T14:26:29;7.80;99.90
1546;DHT22;766;51.502;9.752;2023-04-15T14:28:58;7.80;99.90
1546;DHT22;766;51.502;9.752;2023-04-15T14:31:26;7.90;99.90
1546;DHT22;766;51.502;9.752;2023-04-15T14:33:54;7.90;99.90
1546;DHT22;766;51.502;9.752;2023-04-15T14:36:23;7.80;99.90
1546;DHT22;766;51.502;9.752;2023-04-15T14:38:53;7.80;99.90
1546;DHT22;766;51.502;9.752;2023-04-15T14:41:21;7.80;99.90
1546;DHT22;766;51.502;9.752;2023-04-15T14:43:50;7.90;99.90
1546;DHT22;766;51.502;9.752;2023-04-15T14:46:18;8.00;99.90
1546;DHT22;766;51.502;9.752;2023-04-15T14:48:47;8.10;99.90
1546;DHT22;766;51.502;9.752;2023-04-15T14:51:15;8.00;99.90
1546;DHT22;766;51.502;9.752;2023-04-15T14:53:44;8.10;99.90
1546;DHT22;766;51.502;9.752;2023-04-15T14:56:14;8.00;99.90
1546;DHT22;766;51.502;9.752;2023-04-15T14:58:42;8.10;99.90
1546;DHT22;766;51.502;9.752;2023-04-15T15:01:10;8.10;99.90
1546;DHT22;766;51.502;9.752;2023-04-15T15:03:39;8.20;99.90
1546;DHT22;766;51.502;9.752;2023-04-15T15:06:08;8.20;99.90
1546;DHT22;766;51.502;9.752;2023-04-15T15:08:36;8.10;99.90
1546;DHT22;766;51.502;9.752;2023-04-15T15:11:05;8.00;99.90
1546;DHT22;766;51.502;9.752;2023-04-15T15:13:36;8.00;99.90
1546;DHT22;766;51.502;9.752;2023-04-15T15:16:04;8.10;99.90
1546;DHT22;766;51.502;9.752;2023-04-15T15:18:34;8.10;99.90
1546;DHT22;766;51.502;9.752;2023-04-15T15:21:02;8.10;99.90
1546;DHT22;766;51.502;9.752;2023-04-15T15:23:31;8.20;99.90
1546;DHT22;766;51.502;9.752;2023-04-15T15:25:59;8.20;99.90
1546;DHT22;766;51.502;9.752;2023-04-15T15:28:28;8.10;99.90
1546;DHT22;766;51.502;9.752;2023-04-15T15:30:58;8.10;99.90
1546;DHT22;766;51.502;9.752;2023-04-15T15:33:26;8.10;99.90
1546;DHT22;766;51.502;9.752;2023-04-15T15:35:56;8.20;99.90
1546;DHT22;766;51.502;9.752;2023-04-15T15:38:25;8.20;99.90
1546;DHT22;766;51.502;9.752;2023-04-15T15:40:53;8.20;99.90
1546;DHT22;766;51.502;9.752;2023-04-15T15:43:21;8.20;99.90
1546;DHT22;766;51.502;9.752;2023-04-15T15:45:50;8.20;99.90
1546;DHT22;766;51.502;9.752;2023-04-15T15:48:23;8.30;99.90
1546;DHT22;766;51.502;9.752;2023-04-15T15:50:51;8.30;99.90
1546;DHT22;766;51.502;9.752;2023-04-15T15:53:19;8.30;99.90
1546;DHT22;766;51.502;9.752;2023-04-15T15:55:50;8.30;99.90
1546;DHT22;766;51.502;9.752;2023-04-15T15:58:20;8.40;99.90
1546;DHT22;766;51.502;9.752;2023-04-15T16:00:48;8.40;99.90
1546;DHT22;766;51.502;9.752;2023-04-15T16:03:16;8.30;99.90
1546;DHT22;766;51.502;9.752;2023-04-15T16:05:46;8.30;99.90
1546;DHT22;766;51.502;9.752;2023-04-15T16:08:15;8.30;99.90
1546;DHT22;766;51.502;9.752;2023-04-15T16:10:43;8.30;99.90
1546;DHT22;766;51.502;9.752;2023-04-15T16:13:12;8.30;99.90
1546;DHT22;766;51.502;9.752;2023-04-15T16:15:40;8.30;99.90
1546;DHT22;766;51.502;9.752;2023-04-15T16:18:09;8.30;99.90
1546;DHT22;766;51.502;9.752;2023-04-15T16:20:38;8.40;99.90
1546;DHT22;766;51.502;9.752;2023-04-15T16:23:11;8.40;99.90
1546;DHT22;766;51.502;9.752;2023-04-15T16:25:41;8.40;99.90
1546;DHT22;766;51.502;9.752;2023-04-15T16:28:10;8.40;99.90
1546;DHT22;766;51.502;9.752;2023-04-15T16:30:52;8.50;99.90
1546;DHT22;766;51.502;9.752;2023-04-15T16:33:20;8.50;99.90
1546;DHT22;766;51.502;9.752;2023-04-15T16:35:49;8.40;99.90
1546;DHT22;766;51.502;9.752;2023-04-15T16:38:19;8.50;99.90
1546;DHT22;766;51.502;9.752;2023-04-15T16:40:48;8.40;99.90
1546;DHT22;766;51.502;9.752;2023-04-15T16:43:17;8.60;99.90
1546;DHT22;766;51.502;9.752;2023-04-15T16:45:46;8.60;99.90
1546;DHT22;766;51.502;9.752;2023-04-15T16:48:17;8.50;99.90
1546;DHT22;766;51.502;9.752;2023-04-15T16:50:46;8.60;99.90
1546;DHT22;766;51.502;9.752;2023-04-15T16:53:15;8.70;99.90
1546;DHT22;766;51.502;9.752;2023-04-15T16:55:44;8.60;99.90